createdAt,value
2018-05-09T00:00:02.655Z,3.00
2018-05-09T00:02:28.595Z,2.67
2018-05-09T00:04:54.539Z,2.83
2018-05-09T00:07:20.487Z,2.93
2018-05-09T00:09:46.385Z,3.10
2018-05-09T00:12:12.346Z,3.17
2018-05-09T00:14:38.253Z,3.00
2018-05-09T00:17:04.192Z,3.30
2018-05-09T00:19:30.099Z,3.20
2018-05-09T00:21:56.015Z,3.27
2018-05-09T00:24:21.943Z,3.10
2018-05-09T00:26:47.855Z,2.90
2018-05-09T00:29:13.764Z,3.00
2018-05-09T00:31:39.710Z,3.00
2018-05-09T00:34:05.619Z,3.00
2018-05-09T00:36:31.547Z,2.60
2018-05-09T00:38:57.474Z,2.90
2018-05-09T00:41:23.395Z,2.80
2018-05-09T00:43:49.285Z,3.10
2018-05-09T00:46:15.227Z,2.60
2018-05-09T00:48:41.154Z,2.80
2018-05-09T00:51:07.077Z,2.80
2018-05-09T00:53:33.012Z,2.90
2018-05-09T00:55:58.915Z,3.23
2018-05-09T00:58:24.842Z,3.03
2018-05-09T01:00:50.758Z,3.23
2018-05-09T01:03:16.693Z,3.10
2018-05-09T01:05:42.600Z,3.20
2018-05-09T01:08:08.512Z,2.97
2018-05-09T01:10:34.446Z,3.07
2018-05-09T01:13:00.376Z,3.17
2018-05-09T01:15:26.279Z,2.60
2018-05-09T01:17:52.236Z,2.93
2018-05-09T01:20:18.147Z,3.00
2018-05-09T01:22:44.037Z,3.10
2018-05-09T01:25:09.991Z,3.40
2018-05-09T01:27:35.921Z,2.90
2018-05-09T01:30:01.859Z,3.20
2018-05-09T01:32:27.765Z,3.23
2018-05-09T01:34:53.731Z,3.10
2018-05-09T01:37:19.635Z,3.43
2018-05-09T01:39:45.552Z,3.03
2018-05-09T01:42:11.450Z,3.50
2018-05-09T01:44:37.395Z,3.37
2018-05-09T01:47:03.287Z,3.30
2018-05-09T01:49:29.229Z,3.20
2018-05-09T01:54:48.013Z,3.87
2018-05-09T01:57:13.930Z,3.37
2018-05-09T01:59:39.838Z,4.23
2018-05-09T02:02:05.816Z,3.27
2018-05-09T02:04:31.732Z,2.93
2018-05-09T02:06:57.670Z,3.20
2018-05-09T02:09:23.606Z,3.87
2018-05-09T02:11:49.568Z,3.50
2018-05-09T02:14:15.506Z,3.03
2018-05-09T02:16:41.447Z,4.00
2018-05-09T02:19:07.360Z,3.20
2018-05-09T02:21:33.313Z,3.23
2018-05-09T02:23:59.239Z,3.50
2018-05-09T02:26:25.168Z,3.27
2018-05-09T02:28:51.074Z,3.20
2018-05-09T02:31:17.249Z,3.67
2018-05-09T02:33:42.921Z,3.63
2018-05-09T02:36:08.849Z,3.33
2018-05-09T02:38:34.779Z,3.93
2018-05-09T02:41:00.719Z,3.20
2018-05-09T02:43:26.671Z,3.20
2018-05-09T02:45:52.600Z,3.13
2018-05-09T02:48:18.518Z,3.40
2018-05-09T02:50:44.412Z,3.70
2018-05-09T02:53:10.310Z,3.70
2018-05-09T02:55:36.315Z,3.80
2018-05-09T02:58:02.204Z,3.77
2018-05-09T03:00:28.138Z,3.40
2018-05-09T03:02:54.048Z,3.70
2018-05-09T03:05:20.029Z,3.80
2018-05-09T03:07:45.970Z,3.60
2018-05-09T03:10:11.904Z,3.93
2018-05-09T03:12:37.840Z,4.00
2018-05-09T03:15:03.772Z,3.50
2018-05-09T03:17:29.673Z,3.10
2018-05-09T03:19:55.639Z,3.60
2018-05-09T03:22:21.554Z,3.10
2018-05-09T03:24:47.457Z,3.17
2018-05-09T03:27:13.370Z,3.23
2018-05-09T03:29:39.295Z,3.30
2018-05-09T03:32:05.237Z,3.63
2018-05-09T03:34:31.139Z,3.57
2018-05-09T03:36:57.082Z,3.30
2018-05-09T03:39:22.986Z,3.53
2018-05-09T03:41:48.913Z,3.00
2018-05-09T03:44:14.850Z,3.60
2018-05-09T03:46:40.778Z,3.87
2018-05-09T03:49:06.690Z,3.20
2018-05-09T03:51:32.633Z,3.50
2018-05-09T03:53:58.577Z,3.53
2018-05-09T03:56:24.535Z,3.47
2018-05-09T03:58:50.435Z,3.63
2018-05-09T04:01:16.341Z,3.90
2018-05-09T04:03:54.650Z,3.67
2018-05-09T04:06:32.896Z,3.50
2018-05-09T04:09:11.090Z,3.23
2018-05-09T04:11:37.032Z,3.53
2018-05-09T04:14:02.962Z,3.50
2018-05-09T04:16:28.901Z,4.17
2018-05-09T04:18:54.831Z,3.57
2018-05-09T04:21:20.751Z,3.77
2018-05-09T04:23:46.679Z,3.97
2018-05-09T04:26:12.645Z,4.20
2018-05-09T04:28:38.596Z,4.13
2018-05-09T04:31:04.570Z,3.93
2018-05-09T04:33:30.494Z,4.07
2018-05-09T04:35:56.420Z,4.27
2018-05-09T04:38:22.332Z,4.20
2018-05-09T04:40:48.268Z,4.10
2018-05-09T04:43:14.177Z,4.13
2018-05-09T04:45:40.108Z,4.57
2018-05-09T04:48:06.006Z,4.20
2018-05-09T04:50:31.955Z,4.50
2018-05-09T04:52:57.840Z,4.23
2018-05-09T04:55:23.853Z,3.77
2018-05-09T04:57:49.761Z,3.80
2018-05-09T05:00:15.665Z,3.50
2018-05-09T05:02:41.575Z,3.90
2018-05-09T05:05:07.490Z,3.40
2018-05-09T05:07:33.411Z,4.07
2018-05-09T05:09:59.312Z,4.03
2018-05-09T05:12:25.233Z,3.80
2018-05-09T05:14:51.136Z,3.63
2018-05-09T05:17:17.047Z,3.80
2018-05-09T05:19:42.981Z,3.77
2018-05-09T05:22:08.919Z,3.67
2018-05-09T05:24:34.847Z,3.67
2018-05-09T05:27:00.823Z,3.60
2018-05-09T05:29:26.730Z,3.93
2018-05-09T05:31:52.658Z,3.63
2018-05-09T05:34:18.589Z,3.40
2018-05-09T05:36:44.487Z,3.77
2018-05-09T05:39:10.405Z,3.90
2018-05-09T05:41:36.304Z,3.93
2018-05-09T05:44:02.266Z,3.60
2018-05-09T05:46:28.147Z,3.73
2018-05-09T05:48:54.067Z,3.23
2018-05-09T05:51:19.979Z,3.70
2018-05-09T05:53:45.923Z,3.73
2018-05-09T05:56:11.871Z,4.17
2018-05-09T05:58:37.783Z,3.40
2018-05-09T06:01:03.773Z,3.50
2018-05-09T06:03:29.684Z,3.70
2018-05-09T06:05:55.667Z,3.30
2018-05-09T06:08:21.592Z,2.90
2018-05-09T06:10:47.504Z,3.10
2018-05-09T06:13:13.438Z,3.40
2018-05-09T06:15:39.359Z,3.70
2018-05-09T06:18:05.282Z,3.20
2018-05-09T06:20:31.183Z,3.13
2018-05-09T06:22:57.118Z,3.23
2018-05-09T06:25:23.017Z,3.63
2018-05-09T06:27:48.960Z,3.10
2018-05-09T06:30:14.868Z,3.47
2018-05-09T06:32:40.766Z,3.53
2018-05-09T06:35:06.714Z,3.13
2018-05-09T06:37:32.650Z,3.07
2018-05-09T06:39:58.593Z,3.10
2018-05-09T06:42:24.508Z,3.33
2018-05-09T06:44:50.427Z,3.23
2018-05-09T06:47:16.340Z,3.13
2018-05-09T06:49:42.266Z,3.30
2018-05-09T06:52:08.179Z,3.20
2018-05-09T06:54:49.027Z,2.90
2018-05-09T06:57:14.933Z,3.13
2018-05-09T06:59:40.874Z,3.37
2018-05-09T07:02:06.829Z,3.60
2018-05-09T07:04:32.743Z,3.00
2018-05-09T07:06:58.658Z,3.20
2018-05-09T07:09:24.609Z,2.90
2018-05-09T07:11:50.538Z,3.00
2018-05-09T07:14:16.439Z,2.93
2018-05-09T07:16:42.347Z,3.20
2018-05-09T07:19:08.261Z,3.50
2018-05-09T07:21:34.180Z,3.23
2018-05-09T07:24:00.122Z,3.37
2018-05-09T07:26:26.068Z,3.30
2018-05-09T07:28:52.015Z,3.27
2018-05-09T07:31:17.943Z,2.93
2018-05-09T07:33:43.903Z,3.60
2018-05-09T07:36:09.803Z,3.00
2018-05-09T07:38:35.711Z,3.83
2018-05-09T07:41:01.664Z,3.33
2018-05-09T07:43:27.590Z,2.90
2018-05-09T07:45:53.522Z,3.40
2018-05-09T07:48:19.458Z,3.20
2018-05-09T07:50:45.395Z,2.97
2018-05-09T07:53:11.320Z,2.67
2018-05-09T07:55:37.323Z,2.93
2018-05-09T07:58:03.151Z,3.00
2018-05-09T08:00:29.090Z,3.20
2018-05-09T08:02:55.001Z,2.90
2018-05-09T08:05:20.924Z,2.77
2018-05-09T08:07:46.840Z,3.20
2018-05-09T08:10:12.748Z,2.67
2018-05-09T08:12:38.676Z,3.20
2018-05-09T08:15:04.580Z,3.27
2018-05-09T08:17:30.551Z,3.10
2018-05-09T08:19:56.463Z,3.10
2018-05-09T08:22:22.366Z,3.20
2018-05-09T08:24:48.277Z,3.40
2018-05-09T08:27:14.197Z,3.67
2018-05-09T08:29:40.135Z,3.20
2018-05-09T08:32:06.078Z,3.00
2018-05-09T08:34:31.981Z,3.50
2018-05-09T08:36:57.995Z,3.57
2018-05-09T08:39:23.898Z,3.40
2018-05-09T08:41:49.815Z,3.63
2018-05-09T08:44:15.752Z,3.73
2018-05-09T08:46:41.670Z,3.30
2018-05-09T08:49:07.600Z,3.20
2018-05-09T08:51:33.504Z,3.30
2018-05-09T08:53:59.449Z,3.40
2018-05-09T08:56:25.368Z,3.40
2018-05-09T08:58:51.288Z,3.23
2018-05-09T09:01:17.206Z,3.00
2018-05-09T09:03:43.136Z,3.27
2018-05-09T09:06:09.110Z,3.50
2018-05-09T09:08:34.994Z,3.33
2018-05-09T09:11:00.904Z,2.93
2018-05-09T09:13:26.808Z,3.50
2018-05-09T09:15:52.761Z,3.67
2018-05-09T09:18:18.708Z,3.80
2018-05-09T09:20:44.666Z,4.27
2018-05-09T09:23:10.548Z,3.07
2018-05-09T09:25:36.457Z,3.27
2018-05-09T09:28:02.409Z,3.47
2018-05-09T09:30:28.313Z,3.00
2018-05-09T09:32:54.245Z,3.23
2018-05-09T09:35:20.153Z,3.30
2018-05-09T09:37:46.081Z,3.10
2018-05-09T09:40:11.994Z,3.23
2018-05-09T09:42:38.005Z,3.40
2018-05-09T09:45:03.913Z,2.83
2018-05-09T09:47:29.854Z,3.17
2018-05-09T09:49:55.777Z,3.27
2018-05-09T09:52:21.674Z,3.10
2018-05-09T09:54:47.659Z,3.17
2018-05-09T09:57:13.513Z,3.40
2018-05-09T09:59:39.434Z,2.90
2018-05-09T10:02:05.348Z,3.40
2018-05-09T10:04:31.278Z,3.00
2018-05-09T10:06:57.205Z,3.40
2018-05-09T10:09:23.133Z,3.00
2018-05-09T10:11:49.048Z,2.90
2018-05-09T10:14:15.001Z,3.20
2018-05-09T10:16:40.910Z,3.30
2018-05-09T10:19:06.840Z,3.63
2018-05-09T10:21:32.770Z,3.20
2018-05-09T10:23:58.688Z,3.13
2018-05-09T10:26:24.635Z,3.23
2018-05-09T10:28:50.580Z,3.30
2018-05-09T10:31:16.573Z,3.00
2018-05-09T10:33:42.478Z,3.37
2018-05-09T10:36:08.406Z,3.60
2018-05-09T10:38:34.342Z,3.30
2018-05-09T10:41:00.299Z,3.70
2018-05-09T10:43:26.204Z,3.40
2018-05-09T10:45:52.198Z,3.20
2018-05-09T10:48:18.172Z,3.23
2018-05-09T10:50:44.137Z,3.17
2018-05-09T10:53:10.053Z,3.10
2018-05-09T10:55:35.983Z,3.30
2018-05-09T10:58:01.913Z,3.60
2018-05-09T11:00:27.839Z,3.20
2018-05-09T11:02:53.777Z,3.97
2018-05-09T11:05:19.707Z,3.10
2018-05-09T11:07:45.614Z,4.43
2018-05-09T11:10:11.570Z,3.57
2018-05-09T11:12:37.469Z,3.30
2018-05-09T11:15:03.368Z,3.47
2018-05-09T11:17:29.343Z,3.05
2018-05-09T11:19:55.220Z,2.87
2018-05-09T11:22:21.144Z,3.42
2018-05-09T11:24:47.111Z,3.35
2018-05-09T11:27:13.055Z,3.03
2018-05-09T11:29:38.949Z,3.10
2018-05-09T11:32:04.913Z,3.33
2018-05-09T11:34:30.841Z,3.17
2018-05-09T11:36:56.817Z,3.20
2018-05-09T11:39:22.735Z,2.87
2018-05-09T11:41:48.637Z,2.87
2018-05-09T11:44:14.566Z,2.42
2018-05-09T11:46:40.490Z,2.80
2018-05-09T11:49:06.408Z,2.60
2018-05-09T11:51:32.379Z,2.80
2018-05-09T11:53:58.337Z,2.58
2018-05-09T11:56:24.318Z,3.17
2018-05-09T11:58:50.241Z,2.80
2018-05-09T12:01:16.167Z,2.85
2018-05-09T12:03:42.094Z,2.60
2018-05-09T12:06:08.049Z,3.15
2018-05-09T12:08:33.974Z,3.03
2018-05-09T12:10:59.895Z,3.15
2018-05-09T12:13:25.857Z,3.33
2018-05-09T12:15:51.806Z,3.22
2018-05-09T12:18:17.771Z,3.10
2018-05-09T12:20:43.687Z,3.40
2018-05-09T12:23:09.625Z,3.55
2018-05-09T12:25:35.540Z,3.53
2018-05-09T12:28:01.480Z,3.15
2018-05-09T12:30:27.436Z,3.75
2018-05-09T12:32:53.414Z,3.30
2018-05-09T12:35:19.330Z,3.10
2018-05-09T12:37:45.244Z,3.87
2018-05-09T12:40:11.157Z,3.20
2018-05-09T12:42:37.093Z,3.12
2018-05-09T12:45:03.014Z,3.72
2018-05-09T12:47:28.933Z,3.60
2018-05-09T12:49:54.893Z,3.40
2018-05-09T12:52:20.819Z,3.67
2018-05-09T12:54:46.745Z,3.50
2018-05-09T12:57:12.672Z,3.47
2018-05-09T12:59:38.601Z,3.10
2018-05-09T13:02:04.532Z,3.60
2018-05-09T13:04:30.469Z,3.50
2018-05-09T13:06:56.446Z,3.53
2018-05-09T13:09:22.402Z,3.20
2018-05-09T13:11:48.341Z,3.20
2018-05-09T13:14:14.246Z,3.50
2018-05-09T13:16:40.172Z,3.90
2018-05-09T13:19:06.105Z,3.67
2018-05-09T13:21:32.034Z,3.67
2018-05-09T13:23:57.948Z,3.60
2018-05-09T13:26:23.876Z,3.50
2018-05-09T13:28:49.809Z,3.28
2018-05-09T13:31:15.774Z,3.92
2018-05-09T13:33:41.717Z,3.53
2018-05-09T13:36:07.658Z,4.00
2018-05-09T13:38:33.720Z,3.17
2018-05-09T13:40:59.661Z,3.55
2018-05-09T13:43:25.642Z,3.25
2018-05-09T13:45:51.595Z,3.10
2018-05-09T13:48:17.544Z,3.60
2018-05-09T13:50:43.461Z,3.20
2018-05-09T13:53:09.446Z,3.37
2018-05-09T13:55:35.382Z,3.42
2018-05-09T13:58:01.348Z,3.53
2018-05-09T14:00:27.285Z,3.20
2018-05-09T14:02:53.224Z,3.58
2018-05-09T14:05:19.167Z,3.30
2018-05-09T14:07:45.095Z,3.78
2018-05-09T14:10:11.049Z,3.22
2018-05-09T14:12:51.959Z,3.65
2018-05-09T14:15:18.143Z,3.37
2018-05-09T14:17:44.069Z,3.45
2018-05-09T14:20:10.023Z,3.62
2018-05-09T14:22:35.943Z,3.42
2018-05-09T14:25:01.895Z,3.55
2018-05-09T14:27:27.827Z,3.67
2018-05-09T14:29:53.782Z,3.45
2018-05-09T14:32:19.717Z,3.20
2018-05-09T14:34:45.656Z,3.50
2018-05-09T14:37:14.729Z,2.97
2018-05-09T14:39:40.710Z,3.47
2018-05-09T14:42:06.853Z,3.30
2018-05-09T14:44:32.771Z,3.58
2018-05-09T14:46:58.753Z,3.80
2018-05-09T14:49:24.704Z,3.92
2018-05-09T14:51:52.897Z,3.80
2018-05-09T14:54:18.844Z,3.85
2018-05-09T14:56:45.329Z,3.58
2018-05-09T14:59:11.264Z,3.53
2018-05-09T15:01:37.304Z,3.80
2018-05-09T15:04:04.898Z,4.60
2018-05-09T15:06:31.196Z,4.18
2018-05-09T15:08:57.261Z,3.28
2018-05-09T15:11:23.895Z,3.40
2018-05-09T15:13:49.842Z,3.72
2018-05-09T15:16:15.762Z,3.65
2018-05-09T15:18:41.694Z,3.67
2018-05-09T15:21:07.618Z,3.50
2018-05-09T15:23:33.567Z,3.45
2018-05-09T15:25:59.503Z,3.62
2018-05-09T15:28:25.454Z,3.78
2018-05-09T15:30:51.431Z,3.92
2018-05-09T15:33:17.382Z,3.42
2018-05-09T15:35:43.323Z,3.70
2018-05-09T15:38:09.240Z,3.60
2018-05-09T15:40:35.159Z,3.35
2018-05-09T15:43:01.097Z,3.40
2018-05-09T15:45:27.035Z,3.67
2018-05-09T15:47:52.964Z,3.90
2018-05-09T15:50:18.999Z,3.60
2018-05-09T15:52:44.847Z,3.65
2018-05-09T15:55:10.848Z,4.20
2018-05-09T15:57:36.793Z,3.60
2018-05-09T16:00:02.770Z,3.47
2018-05-09T16:02:28.719Z,3.40
2018-05-09T16:04:54.673Z,3.60
2018-05-09T16:07:20.599Z,3.70
2018-05-09T16:09:46.522Z,3.22
2018-05-09T16:12:12.471Z,3.12
2018-05-09T16:14:38.420Z,3.70
2018-05-09T16:17:04.364Z,4.65
2018-05-09T16:19:30.289Z,3.30
2018-05-09T16:21:56.218Z,3.55
2018-05-09T16:24:22.175Z,3.97
2018-05-09T16:26:48.124Z,3.50
2018-05-09T16:29:14.066Z,3.72
2018-05-09T16:31:40.034Z,3.80
2018-05-09T16:34:05.946Z,3.58
2018-05-09T16:36:31.874Z,3.50
2018-05-09T16:38:57.851Z,3.78
2018-05-09T16:41:23.790Z,3.60
2018-05-09T16:43:49.722Z,3.55
2018-05-09T16:46:15.633Z,3.42
2018-05-09T16:48:41.567Z,3.78
2018-05-09T16:51:07.505Z,3.87
2018-05-09T16:53:33.485Z,3.60
2018-05-09T16:55:59.479Z,3.40
2018-05-09T16:58:25.419Z,3.20
2018-05-09T17:00:51.331Z,3.33
2018-05-09T17:03:17.303Z,3.33
2018-05-09T17:05:43.229Z,3.80
2018-05-09T17:08:09.161Z,3.92
2018-05-09T17:10:35.105Z,3.62
2018-05-09T17:13:01.137Z,4.45
2018-05-09T17:15:27.005Z,3.70
2018-05-09T17:17:52.927Z,3.75
2018-05-09T17:20:18.905Z,4.32
2018-05-09T17:22:45.893Z,3.80
2018-05-09T17:25:11.838Z,3.55
2018-05-09T17:27:37.767Z,3.08
2018-05-09T17:30:03.776Z,3.33
2018-05-09T17:32:29.732Z,3.37
2018-05-09T17:34:55.653Z,3.80
2018-05-09T17:37:21.609Z,3.75
2018-05-09T17:39:47.548Z,3.50
2018-05-09T17:42:13.515Z,3.70
2018-05-09T17:44:39.466Z,3.67
2018-05-09T17:47:05.424Z,3.65
2018-05-09T17:49:31.352Z,3.50
2018-05-09T17:51:57.332Z,3.40
2018-05-09T17:54:23.259Z,3.58
2018-05-09T17:56:49.208Z,3.42
2018-05-09T17:59:15.163Z,3.78
2018-05-09T18:01:41.104Z,3.80
2018-05-09T18:04:07.177Z,3.45
2018-05-09T18:06:33.121Z,3.95
2018-05-09T18:08:59.043Z,3.63
2018-05-09T18:11:24.962Z,4.03
2018-05-09T18:13:50.907Z,3.37
2018-05-09T18:16:16.828Z,3.83
2018-05-09T18:18:42.794Z,4.13
2018-05-09T18:21:08.844Z,3.93
2018-05-09T18:23:34.765Z,3.50
2018-05-09T18:26:00.743Z,3.73
2018-05-09T18:28:26.706Z,3.57
2018-05-09T18:30:52.679Z,3.57
2018-05-09T18:33:18.734Z,3.50
2018-05-09T18:35:44.716Z,3.87
2018-05-09T18:38:10.655Z,3.73
2018-05-09T18:40:36.639Z,4.17
2018-05-09T18:43:02.577Z,3.43
2018-05-09T18:45:28.520Z,3.90
2018-05-09T18:47:54.565Z,3.97
2018-05-09T18:50:20.550Z,3.40
2018-05-09T18:52:46.516Z,3.97
2018-05-09T18:55:12.543Z,4.00
2018-05-09T18:57:38.542Z,3.53
2018-05-09T19:00:04.528Z,4.00
2018-05-09T19:02:30.558Z,3.87
2018-05-09T19:04:56.512Z,3.67
2018-05-09T19:07:22.491Z,3.67
2018-05-09T19:09:48.416Z,3.43
2018-05-09T19:12:14.396Z,3.83
2018-05-09T19:14:40.322Z,3.67
2018-05-09T19:17:07.293Z,3.80
2018-05-09T19:19:33.277Z,4.33
2018-05-09T19:21:59.228Z,4.00
2018-05-09T19:24:25.181Z,3.90
2018-05-09T19:26:51.175Z,4.07
2018-05-09T19:29:17.114Z,4.33
2018-05-09T19:31:43.058Z,4.33
2018-05-09T19:34:09.056Z,3.90
2018-05-09T19:36:35.031Z,4.00
2018-05-09T19:39:00.995Z,4.20
2018-05-09T19:41:26.987Z,4.10
2018-05-09T19:43:52.900Z,4.20
2018-05-09T19:46:18.897Z,4.30
2018-05-09T19:48:44.909Z,4.10
2018-05-09T19:51:10.944Z,4.70
2018-05-09T19:53:36.979Z,4.53
2018-05-09T19:56:02.947Z,4.50
2018-05-09T19:58:28.964Z,4.63
2018-05-09T20:00:55.048Z,4.30
2018-05-09T20:03:21.073Z,4.50
2018-05-09T20:05:47.064Z,4.33
2018-05-09T20:08:13.034Z,4.50
2018-05-09T20:10:39.001Z,4.47
2018-05-09T20:13:05.040Z,4.50
2018-05-09T20:15:31.009Z,4.30
2018-05-09T20:17:57.050Z,4.50
2018-05-09T20:20:23.054Z,4.73
2018-05-09T20:22:49.072Z,4.50
2018-05-09T20:25:15.114Z,4.23
2018-05-09T20:27:41.081Z,4.30
2018-05-09T20:30:13.142Z,4.37
2018-05-09T20:32:39.184Z,4.50
2018-05-09T20:35:05.092Z,4.47
2018-05-09T20:37:31.077Z,4.60
2018-05-09T20:39:57.253Z,4.60
2018-05-09T20:42:23.299Z,4.47
2018-05-09T20:44:49.286Z,4.40
2018-05-09T20:47:15.345Z,4.63
2018-05-09T20:49:41.324Z,5.00
2018-05-09T20:52:07.324Z,4.93
2018-05-09T20:54:33.644Z,4.53
2018-05-09T20:56:59.592Z,5.27
2018-05-09T20:59:25.579Z,4.23
2018-05-09T21:01:51.597Z,4.40
2018-05-09T21:04:17.530Z,4.83
2018-05-09T21:06:43.473Z,4.83
2018-05-09T21:09:09.503Z,4.87
2018-05-09T21:11:35.449Z,4.70
2018-05-09T21:14:01.481Z,5.07
2018-05-09T21:16:27.453Z,5.00
2018-05-09T21:18:53.744Z,4.53
2018-05-09T21:21:19.764Z,4.70
2018-05-09T21:23:45.793Z,5.30
2018-05-09T21:26:11.819Z,5.17
2018-05-09T21:28:37.945Z,5.07
2018-05-09T21:31:03.873Z,5.37
2018-05-09T21:33:29.837Z,5.10
2018-05-09T21:35:55.835Z,5.43
2018-05-09T21:38:21.766Z,5.20
2018-05-09T21:40:48.521Z,5.10
2018-05-09T21:43:14.452Z,5.27
2018-05-09T21:45:40.405Z,5.10
2018-05-09T21:48:06.384Z,5.10
2018-05-09T21:50:32.360Z,5.33
2018-05-09T21:52:58.309Z,5.10
2018-05-09T21:55:24.304Z,4.93
2018-05-09T21:57:50.217Z,5.30
2018-05-09T22:00:16.164Z,5.93
2018-05-09T22:02:42.157Z,5.87
2018-05-09T22:05:08.039Z,5.70
2018-05-09T22:07:33.946Z,5.40
2018-05-09T22:09:59.869Z,5.30
2018-05-09T22:12:25.805Z,5.60
2018-05-09T22:14:51.735Z,5.17
2018-05-09T22:17:17.673Z,5.20
2018-05-09T22:19:43.599Z,5.40
2018-05-09T22:22:09.523Z,5.07
2018-05-09T22:24:35.443Z,5.30
2018-05-09T22:27:01.360Z,5.40
2018-05-09T22:29:27.290Z,5.60
2018-05-09T22:31:53.209Z,5.83
2018-05-09T22:34:19.124Z,6.17
2018-05-09T22:36:45.050Z,5.70
2018-05-09T22:39:10.978Z,5.67
2018-05-09T22:41:36.880Z,6.80
2018-05-09T22:44:02.806Z,6.90
2018-05-09T22:46:28.724Z,6.23
2018-05-09T22:48:54.634Z,6.07
2018-05-09T22:51:20.564Z,6.17
2018-05-09T22:53:46.489Z,5.47
2018-05-09T22:56:12.442Z,5.83
2018-05-09T22:58:38.398Z,5.80
2018-05-09T23:01:04.334Z,5.70
2018-05-09T23:03:30.261Z,5.87
2018-05-09T23:05:56.206Z,5.70
2018-05-09T23:08:22.147Z,7.27
2018-05-09T23:10:48.072Z,6.67
2018-05-09T23:13:13.999Z,6.93
2018-05-09T23:15:39.915Z,6.93
2018-05-09T23:18:05.833Z,6.90
2018-05-09T23:20:31.790Z,6.20
2018-05-09T23:22:57.696Z,5.87
2018-05-09T23:25:23.632Z,6.00
2018-05-09T23:27:49.528Z,5.90
2018-05-09T23:30:15.475Z,6.00
2018-05-09T23:32:41.390Z,6.00
2018-05-09T23:35:07.335Z,6.83
2018-05-09T23:37:33.259Z,6.77
2018-05-09T23:39:59.192Z,6.37
2018-05-09T23:42:25.113Z,6.20
2018-05-09T23:44:51.065Z,6.23
2018-05-09T23:47:17.061Z,6.67
2018-05-09T23:49:42.983Z,6.60
2018-05-09T23:52:08.954Z,7.17
2018-05-09T23:54:34.881Z,8.10
2018-05-09T23:57:00.799Z,7.20
2018-05-09T23:59:26.749Z,7.47
